Wooster, OH

3:42 PM EST on December 17, 2014 (GMT -0500)
Mansfield Lahm Regional | Change Station
CLOSE
Current Station
Airport
Location: Mansfield,
Elevation: 1296 ft
Nearby Weather Stations

Elev 1296 ft 40.82 °N, 82.52 °W | Updated 50 minutes ago

Overcast
Overcast
29 °F
Feels Like 19 °F
N
12
Wind Variable Wind from WSW
Gusts 20 mph

Today
High -- | Low -- °F
--% Chance of Precip.
Yesterday
High -- | Low -- °F
Precip. -- in
7:46 AM 5:01 PM
Waning Crescent, 20% visible
Pressure 30.13 in
Visibility 10.0 miles
Clouds Overcast 1500 ft
Windchill 19 °F
Dew Point 24 °F
Humidity 82%
Rainfall 0.02 in
Snow Depth Not available.
UV 0 out of 12
Pollen .10 out of 12
Air Quality Not available.
Flu Activity Not available.
METAR KMFD 171952Z 25010G17KT 10SM OVC015 M02/M04 A3009 RMK AO2 SLP203 T10171044

More Conditions Fewer Conditions

Pressure 30.13 in
Visibility 10.0 miles
Clouds Overcast 1500 ft
Windchill 19 °F
Dew Point 24 °F
Humidity 82%
Rainfall 0.02 in
Snow Depth Not available.
UV 0 out of 12
Pollen .10 out of 12
Air Quality Not available.
Flu Activity Not available.
METAR KMFD 171952Z 25010G17KT 10SM OVC015 M02/M04 A3009 RMK AO2 SLP203 T10171044

More Conditions Fewer Conditions

10-Day Weather Forecast

Almanac

Astronomy

Dec. 17, 2014 Rise Set
Actual Time
Civil Twilight
Nautical Twilight
Astronomical Twilight
Moon
Length of Visible Light
Length of Day
Tomorrow will be .
, % of the Moon is Illuminated

Today's Extremes

State Highs State Lows

Community

WunderPhotos

Upload Photos

1,778,803 photos uploaded!

WunderBlogs® & News

Nearby

Air Quality

  Air Quality AQ Index Pollutant
Not available.

Snow Depth

Station Depth Elevation

Earthquake Activity

City Distance Mag. Time & Date
Minimum magnitude displayed is 2.5.

Coastal Water Temperatures

Place Temperature

Nearby Weather Stations